createdAt,value
2019-01-11T16:51:47.455Z,91.70
2019-01-11T16:54:08.539Z,91.60
2019-01-11T16:56:29.589Z,91.60
2019-01-11T16:58:50.671Z,91.60
2019-01-11T17:01:11.751Z,91.70
2019-01-11T17:03:32.941Z,91.80
2019-01-11T17:05:54.010Z,91.80
2019-01-11T17:08:15.093Z,91.50
2019-01-11T17:10:36.267Z,91.40
2019-01-11T17:12:57.470Z,91.40
2019-01-11T17:17:02.761Z,91.40
2019-01-11T17:19:24.429Z,91.30
2019-01-11T17:21:46.831Z,91.20
2019-01-11T17:24:08.047Z,91.20
2019-01-11T17:26:29.250Z,91.20
2019-01-11T17:28:50.476Z,91.00
2019-01-11T17:31:11.675Z,91.10
2019-01-11T17:33:32.887Z,91.00
2019-01-11T17:35:54.095Z,91.10
2019-01-11T17:38:15.323Z,91.00
2019-01-11T17:40:36.527Z,90.80
2019-01-11T17:42:57.737Z,90.70
2019-01-11T17:45:18.959Z,90.80
2019-01-11T17:47:40.168Z,90.70
2019-01-11T17:50:01.721Z,90.70
2019-01-11T17:52:23.239Z,90.50
2019-01-11T17:54:44.462Z,90.50
2019-01-11T17:57:05.653Z,90.50
2019-01-11T17:59:26.877Z,90.50
2019-01-11T18:01:48.062Z,90.40
2019-01-11T18:04:09.270Z,90.30
2019-01-11T18:06:30.479Z,90.40
2019-01-11T18:08:51.792Z,90.20
2019-01-11T18:11:13.029Z,90.20
2019-01-11T18:13:34.260Z,90.10
2019-01-11T18:15:55.502Z,90.20
2019-01-11T18:18:16.703Z,90.20
2019-01-11T18:20:37.952Z,90.10
2019-01-11T18:22:59.249Z,90.20
2019-01-11T18:25:20.535Z,90.10
2019-01-11T18:27:43.044Z,90.10
2019-01-11T18:30:10.666Z,90.10
2019-01-11T18:32:31.880Z,90.20
2019-01-11T18:34:53.115Z,90.30
2019-01-11T18:37:14.404Z,90.30
2019-01-11T18:39:35.781Z,90.20
2019-01-11T18:41:56.965Z,90.20
2019-01-11T18:44:18.174Z,90.30
2019-01-11T18:46:39.375Z,90.70
2019-01-11T18:49:00.633Z,90.60
2019-01-11T18:51:22.316Z,90.50
2019-01-11T18:53:43.564Z,90.50
2019-01-11T18:56:05.573Z,90.50
2019-01-11T18:58:27.275Z,90.60
2019-01-11T19:00:48.583Z,90.50
2019-01-11T19:03:09.799Z,90.60
2019-01-11T19:05:31.147Z,90.70
2019-01-11T19:07:52.337Z,90.70
2019-01-11T19:10:15.757Z,90.90
2019-01-11T19:12:36.997Z,90.90
2019-01-11T19:14:58.305Z,90.90
2019-01-11T19:17:19.527Z,91.00
2019-01-11T19:19:40.757Z,91.10
2019-01-11T19:22:01.954Z,91.30
2019-01-11T19:24:23.450Z,91.60
2019-01-11T19:26:44.664Z,91.80
2019-01-11T19:29:05.877Z,91.80
2019-01-11T19:31:27.082Z,91.90
2019-01-11T19:33:48.275Z,92.00
2019-01-11T19:36:09.519Z,92.20
2019-01-11T19:38:30.727Z,92.20
2019-01-11T19:40:51.945Z,92.20
2019-01-11T19:43:13.254Z,92.00
2019-01-11T19:45:34.536Z,91.90
2019-01-11T19:47:55.777Z,91.90
2019-01-11T19:50:21.168Z,91.80
2019-01-11T19:52:42.873Z,91.60
2019-01-11T19:55:06.236Z,91.50
2019-01-11T19:57:27.429Z,91.60
2019-01-11T19:59:48.646Z,91.50
2019-01-11T20:02:09.981Z,91.50
2019-01-11T20:04:31.351Z,91.40
2019-01-11T20:06:52.600Z,91.50
2019-01-11T20:09:13.925Z,91.50
2019-01-11T20:11:35.252Z,91.40
2019-01-11T20:13:56.553Z,91.50
2019-01-11T20:16:17.819Z,91.40
2019-01-11T20:18:39.080Z,91.50
2019-01-11T20:21:00.290Z,91.50
2019-01-11T20:23:22.691Z,91.50
2019-01-11T20:25:44.002Z,91.40
2019-01-11T20:28:05.358Z,91.40
2019-01-11T20:30:26.587Z,91.50
2019-01-11T20:32:47.795Z,91.80
2019-01-11T20:35:09.007Z,91.80
2019-01-11T20:37:30.331Z,91.80
2019-01-11T20:39:51.542Z,91.80
2019-01-11T20:42:12.866Z,91.80
2019-01-11T20:44:34.250Z,91.80
2019-01-11T20:46:55.452Z,91.80
2019-01-11T20:49:16.649Z,91.90
2019-01-11T20:51:37.924Z,91.90
2019-01-11T20:53:59.143Z,91.90
2019-01-11T20:56:20.347Z,92.00
2019-01-11T20:58:42.161Z,92.00
2019-01-11T21:01:06.316Z,92.30
2019-01-11T21:03:27.611Z,92.00
2019-01-11T21:05:48.802Z,92.00
2019-01-11T21:08:13.611Z,92.00
2019-01-11T21:10:35.407Z,92.10
2019-01-11T21:12:56.703Z,92.20
2019-01-11T21:15:20.002Z,92.30
2019-01-11T21:17:41.226Z,92.30
2019-01-11T21:20:05.938Z,92.30
2019-01-11T21:22:27.153Z,92.50
2019-01-11T21:24:48.421Z,92.40
2019-01-11T21:27:09.649Z,92.50
2019-01-11T21:29:30.883Z,92.50
2019-01-11T21:31:52.247Z,92.70
2019-01-11T21:34:13.477Z,92.70
2019-01-11T21:36:34.863Z,92.70
2019-01-11T21:38:56.071Z,92.80
2019-01-11T21:41:17.502Z,92.70
2019-01-11T21:43:38.810Z,92.80
2019-01-11T21:46:03.554Z,92.80
2019-01-11T21:48:23.143Z,92.90
2019-01-11T21:50:44.567Z,92.90
2019-01-11T21:53:05.973Z,92.90
2019-01-11T21:55:27.325Z,92.90
2019-01-11T21:57:48.548Z,92.90
2019-01-11T22:00:16.049Z,92.80
2019-01-11T22:02:37.631Z,92.90
2019-01-11T22:04:58.880Z,92.90
2019-01-11T22:07:20.087Z,92.90
2019-01-11T22:09:41.303Z,92.80
2019-01-11T22:12:02.803Z,92.60
2019-01-11T22:14:24.031Z,92.60
2019-01-11T22:16:45.333Z,92.70
2019-01-11T22:19:07.912Z,92.60
2019-01-11T22:21:29.383Z,92.60
2019-01-11T22:23:50.597Z,92.60
2019-01-11T22:26:11.802Z,92.50
2019-01-11T22:28:33.008Z,92.70
2019-01-11T22:30:54.222Z,92.50
2019-01-11T22:33:15.446Z,92.50
2019-01-11T22:35:36.702Z,92.40
2019-01-11T22:37:57.915Z,92.40
2019-01-11T22:40:21.431Z,92.50
2019-01-11T22:42:42.735Z,92.50
2019-01-11T22:45:07.742Z,92.40
2019-01-11T22:47:28.947Z,92.30
2019-01-11T22:49:50.139Z,92.50
2019-01-11T22:52:11.949Z,92.40
2019-01-11T22:54:33.370Z,92.30
2019-01-11T22:56:54.578Z,92.40
2019-01-11T22:59:15.773Z,92.50
2019-01-11T23:01:44.108Z,92.50
2019-01-11T23:04:05.379Z,92.50
2019-01-11T23:06:30.411Z,92.50
2019-01-11T23:08:51.622Z,92.60
2019-01-11T23:11:16.614Z,92.50
2019-01-11T23:13:37.826Z,92.50
2019-01-11T23:15:59.023Z,92.50
2019-01-11T23:18:20.243Z,92.50
2019-01-11T23:20:41.458Z,92.50
2019-01-11T23:23:02.686Z,92.50
2019-01-11T23:25:23.895Z,92.40
2019-01-11T23:27:45.218Z,92.50
2019-01-11T23:30:10.235Z,92.40
2019-01-11T23:32:31.918Z,92.40
2019-01-11T23:34:53.337Z,92.50
2019-01-11T23:37:14.544Z,92.50
2019-01-11T23:39:35.737Z,92.50
2019-01-11T23:41:56.925Z,92.50
2019-01-11T23:44:18.141Z,92.50
2019-01-11T23:46:39.329Z,92.50
2019-01-11T23:49:05.298Z,92.50
2019-01-11T23:51:26.510Z,92.50
2019-01-11T23:53:47.875Z,92.50
2019-01-11T23:56:09.079Z,92.90
2019-01-11T23:58:30.295Z,92.50
